< < Back
Terminal Aerodrome Forecast


Current Version              Previous Versions:   1  2  3  4  5  6  7  8  9  

Terminal Aerodrome Forecast

240
FTUS42 KFFC 021732
TAFFTY
TAF
KFTY 021732Z 0218/0318 27005KT P6SM BKN050
     FM030000 30005KT P6SM SCT050 BKN200
     FM031500 34005KT P6SM SCT050 BKN200=

Latest METAR

886
SAUS70 KWBC 031300 RRC
MTRFTY
METAR KFTY 031253Z AUTO 27003KT 10SM CLR 24/21 A3003 RMK AO2 SLP160
T02440211


USA.gov is the U.S. government's official web portal to all federal, state and local government web resources and services.